createdAt,value
2023-09-13T00:18:50.203Z,7.72
2023-09-13T00:28:52.335Z,7.90
2023-09-13T00:38:54.210Z,8.93
2023-09-13T00:58:58.766Z,7.93
2023-09-13T01:09:05.108Z,9.00
2023-09-13T01:19:51.541Z,8.55
2023-09-13T01:29:54.452Z,9.02
2023-09-13T01:39:59.871Z,8.85
2023-09-13T01:50:04.137Z,8.88
2023-09-13T02:00:06.844Z,9.88
2023-09-13T02:10:09.945Z,9.27
2023-09-13T02:20:13.512Z,9.65
2023-09-13T02:30:15.303Z,10.02
2023-09-13T02:40:18.220Z,8.43
2023-09-13T02:50:20.036Z,10.80
2023-09-13T03:00:25.002Z,9.93
2023-09-13T03:10:30.191Z,8.90
2023-09-13T03:20:31.938Z,9.82
2023-09-13T03:30:35.788Z,8.93
2023-09-13T03:40:37.504Z,10.70
2023-09-13T03:50:39.236Z,9.97
2023-09-13T04:00:41.020Z,9.93
2023-09-13T04:10:42.801Z,10.13
2023-09-13T04:20:45.707Z,9.93
2023-09-13T04:30:49.647Z,10.93
2023-09-13T04:40:51.356Z,9.43
2023-09-13T04:50:53.173Z,8.97
2023-09-13T05:00:54.973Z,10.73
2023-09-13T05:10:56.757Z,9.63
2023-09-13T05:20:59.872Z,10.07
2023-09-13T05:31:02.146Z,10.70
2023-09-13T05:41:11.949Z,10.70
2023-09-13T05:51:13.753Z,12.63
2023-09-13T06:11:20.644Z,11.82
2023-09-13T06:21:22.707Z,9.75
2023-09-13T06:31:33.140Z,8.25
2023-09-13T06:41:36.761Z,8.73
2023-09-13T07:11:48.345Z,7.05
2023-09-13T07:21:52.304Z,6.00
2023-09-13T07:31:54.150Z,5.47
2023-09-13T07:41:55.943Z,7.50
2023-09-13T07:51:57.680Z,6.50
2023-09-13T08:02:01.504Z,6.25
2023-09-13T08:12:04.759Z,7.15
2023-09-13T08:22:06.749Z,5.22
2023-09-13T08:32:08.794Z,6.00
2023-09-13T08:42:16.923Z,6.20
2023-09-13T08:52:19.335Z,5.72
2023-09-13T09:02:26.325Z,6.65
2023-09-13T09:12:28.940Z,5.05
2023-09-13T09:22:31.655Z,6.15
2023-09-13T09:32:39.577Z,6.05
2023-09-13T09:42:41.476Z,5.33
2023-09-13T09:52:44.529Z,5.85
2023-09-13T10:02:47.274Z,6.28
2023-09-13T10:12:52.238Z,5.22
2023-09-13T10:22:59.313Z,4.88
2023-09-13T10:33:04.950Z,6.65
2023-09-13T10:43:09.647Z,5.17
2023-09-13T10:53:15.299Z,4.88
2023-09-13T11:03:19.817Z,6.03
2023-09-13T11:13:32.761Z,5.70
2023-09-13T11:23:59.962Z,5.35
2023-09-13T11:34:06.072Z,5.40
2023-09-13T11:44:24.609Z,5.28
2023-09-13T11:54:30.388Z,5.15
2023-09-13T12:04:51.963Z,4.45
2023-09-13T12:15:01.815Z,5.88
2023-09-13T12:25:06.174Z,4.30
2023-09-13T12:35:08.343Z,3.67
2023-09-13T12:45:10.924Z,3.67
2023-09-13T12:55:12.786Z,3.80
2023-09-13T13:05:15.313Z,3.65
2023-09-13T13:15:17.431Z,3.90
2023-09-13T13:25:23.386Z,4.03
2023-09-13T13:35:25.592Z,4.10
2023-09-13T13:45:27.778Z,3.95
2023-09-13T13:55:31.097Z,4.00
2023-09-13T14:05:33.341Z,4.30
2023-09-13T14:15:38.745Z,3.30
2023-09-13T14:25:44.648Z,4.18
2023-09-13T14:35:47.777Z,4.10
2023-09-13T14:45:50.324Z,4.18
2023-09-13T14:55:58.867Z,4.03
2023-09-13T15:06:01.080Z,3.85
2023-09-13T15:16:05.126Z,4.80
2023-09-13T15:26:07.036Z,4.50
2023-09-13T15:36:08.786Z,4.65
2023-09-13T15:46:16.848Z,4.80
2023-09-13T15:56:19.496Z,4.40
2023-09-13T16:06:21.349Z,4.75
2023-09-13T16:16:28.531Z,4.50
2023-09-13T16:26:33.929Z,4.63
2023-09-13T16:36:36.349Z,4.72
2023-09-13T16:46:38.991Z,5.43
2023-09-13T16:56:41.316Z,6.10
2023-09-13T17:06:43.318Z,5.95
2023-09-13T17:16:48.324Z,6.82
2023-09-13T17:27:00.015Z,7.35
2023-09-13T17:37:10.171Z,7.65
2023-09-13T17:47:14.784Z,7.43
2023-09-13T17:57:18.232Z,7.38
2023-09-13T18:07:24.639Z,8.38
2023-09-13T18:17:35.093Z,7.93
2023-09-13T18:27:46.318Z,8.60
2023-09-13T18:37:50.504Z,9.07
2023-09-13T18:47:53.295Z,11.55
2023-09-13T18:57:56.286Z,9.55
2023-09-13T19:08:02.181Z,9.48
2023-09-13T19:18:05.286Z,9.88
2023-09-13T19:28:07.673Z,9.50
2023-09-13T19:38:23.735Z,10.02
2023-09-13T19:48:31.930Z,12.73
2023-09-13T19:58:37.933Z,9.55
2023-09-13T20:08:40.153Z,10.30
2023-09-13T20:18:43.865Z,12.20
2023-09-13T20:28:48.859Z,9.77
2023-09-13T20:38:51.855Z,10.63
2023-09-13T20:48:54.042Z,10.57
2023-09-13T20:58:56.102Z,10.85
2023-09-13T21:08:58.091Z,10.65
2023-09-13T21:19:01.532Z,11.40
2023-09-13T21:29:03.421Z,10.48
2023-09-13T21:39:05.724Z,10.93
2023-09-13T21:49:11.486Z,11.00
2023-09-13T21:59:15.239Z,11.55
2023-09-13T22:09:17.029Z,11.82
2023-09-13T22:19:18.809Z,11.40
2023-09-13T22:29:22.093Z,10.98
2023-09-13T22:39:23.928Z,11.38
2023-09-13T22:49:30.075Z,10.27
2023-09-13T22:59:34.089Z,9.48
2023-09-13T23:09:35.894Z,10.07
2023-09-13T23:19:37.744Z,9.70
2023-09-13T23:29:39.446Z,9.18
2023-09-13T23:39:41.320Z,9.88
2023-09-13T23:49:44.037Z,8.27
2023-09-13T23:59:47.543Z,5.93
